createdAt,value
2022-08-19T00:00:23.050Z,22.20
2022-08-19T00:02:50.299Z,22.10
2022-08-19T00:05:21.135Z,22.10
2022-08-19T00:07:51.429Z,22.10
2022-08-19T00:10:21.573Z,22.10
2022-08-19T00:12:52.174Z,22.00
2022-08-19T00:15:21.238Z,22.00
2022-08-19T00:17:53.625Z,21.90
2022-08-19T00:20:25.618Z,21.90
2022-08-19T00:22:52.931Z,21.90
2022-08-19T00:25:30.193Z,21.90
2022-08-19T00:27:57.890Z,21.80
2022-08-19T00:30:24.752Z,21.80
2022-08-19T00:32:51.582Z,21.70
2022-08-19T00:35:19.218Z,21.70
2022-08-19T00:37:52.437Z,21.70
2022-08-19T00:40:20.219Z,21.70
2022-08-19T00:42:47.389Z,21.60
2022-08-19T00:45:21.619Z,21.60
2022-08-19T00:47:48.338Z,21.60
2022-08-19T00:50:19.874Z,21.50
2022-08-19T00:52:51.656Z,21.50
2022-08-19T00:55:28.918Z,21.50
2022-08-19T00:58:01.874Z,21.40
2022-08-19T01:00:30.792Z,21.40
2022-08-19T01:02:57.578Z,21.30
2022-08-19T01:05:30.801Z,21.30
2022-08-19T01:08:03.273Z,21.30
2022-08-19T01:10:37.059Z,21.20
2022-08-19T01:13:04.866Z,21.20
2022-08-19T01:15:36.257Z,21.20
2022-08-19T01:18:11.873Z,21.10
2022-08-19T01:20:42.241Z,21.10
2022-08-19T01:23:09.740Z,21.10
2022-08-19T01:25:45.008Z,21.10
2022-08-19T01:28:40.040Z,21.00
2022-08-19T01:31:26.425Z,21.00
2022-08-19T01:33:58.411Z,21.00
2022-08-19T01:36:53.161Z,20.90
2022-08-19T01:39:25.164Z,21.00
2022-08-19T01:41:55.229Z,20.90
2022-08-19T01:44:24.752Z,20.90
2022-08-19T01:46:52.459Z,20.80
2022-08-19T01:49:21.679Z,20.80
2022-08-19T01:51:53.053Z,20.80
2022-08-19T01:54:27.896Z,20.70
2022-08-19T01:57:04.583Z,20.80
2022-08-19T01:59:32.694Z,20.70
2022-08-19T02:01:59.408Z,20.70
2022-08-19T02:04:28.446Z,20.60
2022-08-19T02:06:57.960Z,20.60
2022-08-19T02:09:24.655Z,20.60
2022-08-19T02:11:51.526Z,20.60
2022-08-19T02:14:20.828Z,20.60
2022-08-19T02:16:47.541Z,20.60
2022-08-19T02:19:16.354Z,20.50
2022-08-19T02:21:45.582Z,20.50
2022-08-19T02:24:13.376Z,20.50
2022-08-19T02:26:43.568Z,20.50
2022-08-19T02:29:13.411Z,20.50
2022-08-19T02:31:41.675Z,20.50
2022-08-19T02:34:10.853Z,20.50
2022-08-19T02:36:37.776Z,20.50
2022-08-19T02:39:14.408Z,20.50
2022-08-19T02:41:43.191Z,20.60
2022-08-19T02:44:22.884Z,20.60
2022-08-19T02:46:57.926Z,20.60
2022-08-19T02:49:35.129Z,20.60
2022-08-19T02:52:02.012Z,20.70
2022-08-19T02:54:29.461Z,20.70
2022-08-19T02:57:00.480Z,20.70
2022-08-19T02:59:30.290Z,20.80
2022-08-19T03:01:57.277Z,20.80
2022-08-19T03:04:27.521Z,20.80
2022-08-19T03:07:10.602Z,20.90
2022-08-19T03:09:38.628Z,20.90
2022-08-19T03:12:08.596Z,20.90
2022-08-19T03:14:39.870Z,20.90
2022-08-19T03:17:07.491Z,20.90
2022-08-19T03:19:41.001Z,20.90
2022-08-19T03:22:10.581Z,20.90
2022-08-19T03:24:38.292Z,21.00
2022-08-19T03:27:06.201Z,21.00
2022-08-19T03:29:43.021Z,21.00
2022-08-19T03:32:10.368Z,21.00
2022-08-19T03:34:57.899Z,21.00
2022-08-19T03:37:24.549Z,21.00
2022-08-19T03:39:52.625Z,21.00
2022-08-19T03:42:38.813Z,21.00
2022-08-19T03:45:13.886Z,21.00
2022-08-19T03:47:40.628Z,21.00
2022-08-19T03:50:07.767Z,21.00
2022-08-19T03:52:35.603Z,21.00
2022-08-19T03:55:05.497Z,21.00
2022-08-19T03:57:34.021Z,21.00
2022-08-19T04:00:12.531Z,21.00
2022-08-19T04:02:42.801Z,21.00
2022-08-19T04:05:23.237Z,20.90
2022-08-19T04:07:54.993Z,21.00
2022-08-19T04:10:21.707Z,21.00
2022-08-19T04:12:50.519Z,21.00
2022-08-19T04:15:20.455Z,21.00
2022-08-19T04:17:47.543Z,20.90
2022-08-19T04:20:18.316Z,20.90
2022-08-19T04:22:47.967Z,20.90
2022-08-19T04:25:19.504Z,20.90
2022-08-19T04:27:47.362Z,20.90
2022-08-19T04:30:15.389Z,20.90
2022-08-19T04:32:44.498Z,20.90
2022-08-19T04:35:17.484Z,20.90
2022-08-19T04:37:46.158Z,20.90
2022-08-19T04:40:31.354Z,20.90
2022-08-19T04:42:58.134Z,20.90
2022-08-19T04:45:24.910Z,20.90
2022-08-19T04:47:58.228Z,20.90
2022-08-19T04:50:27.661Z,20.90
2022-08-19T04:52:56.256Z,20.90
2022-08-19T04:55:22.977Z,20.90
2022-08-19T04:57:49.852Z,20.90
2022-08-19T05:00:16.616Z,20.90
2022-08-19T05:02:43.925Z,20.90
2022-08-19T05:05:10.811Z,21.00
2022-08-19T05:07:37.771Z,21.00
2022-08-19T05:10:06.915Z,21.00
2022-08-19T05:12:33.920Z,21.00
2022-08-19T05:15:01.713Z,21.00
2022-08-19T05:17:32.408Z,21.00
2022-08-19T05:20:20.608Z,21.10
2022-08-19T05:22:48.592Z,21.10
2022-08-19T05:25:19.927Z,21.10
2022-08-19T05:27:46.940Z,21.10
2022-08-19T05:30:14.433Z,21.10
2022-08-19T05:32:41.758Z,21.20
2022-08-19T05:35:09.210Z,21.20
2022-08-19T05:37:35.981Z,21.20
2022-08-19T05:40:04.524Z,21.20
2022-08-19T05:42:31.522Z,21.20
2022-08-19T05:44:58.350Z,21.20
2022-08-19T05:47:25.073Z,21.20
2022-08-19T05:49:51.963Z,21.20
2022-08-19T05:52:19.316Z,21.20
2022-08-19T05:54:51.122Z,21.30
2022-08-19T05:57:19.737Z,21.30
2022-08-19T05:59:52.779Z,21.30
2022-08-19T06:02:20.503Z,21.30
2022-08-19T06:04:47.325Z,21.30
2022-08-19T06:07:14.039Z,21.30
2022-08-19T06:09:59.113Z,21.40
2022-08-19T06:12:35.880Z,21.40
2022-08-19T06:15:06.543Z,21.40
2022-08-19T06:17:35.645Z,21.50
2022-08-19T06:20:04.946Z,21.50
2022-08-19T06:22:31.668Z,21.50
2022-08-19T06:24:58.486Z,21.50
2022-08-19T06:27:25.421Z,21.60
2022-08-19T06:29:52.122Z,21.60
2022-08-19T06:32:20.042Z,21.70
2022-08-19T06:34:47.345Z,21.70
2022-08-19T06:37:14.411Z,21.70
2022-08-19T06:39:43.365Z,21.80
2022-08-19T06:42:12.936Z,21.80
2022-08-19T06:44:43.534Z,21.80
2022-08-19T06:47:23.822Z,21.90
2022-08-19T06:50:03.816Z,21.90
2022-08-19T06:52:34.812Z,22.00
2022-08-19T06:55:05.890Z,22.10
2022-08-19T06:57:34.078Z,22.20
2022-08-19T07:00:03.631Z,22.30
2022-08-19T07:02:30.352Z,22.40
2022-08-19T07:04:59.063Z,22.50
2022-08-19T07:07:29.122Z,22.50
2022-08-19T07:09:59.996Z,22.50
2022-08-19T07:12:33.725Z,22.60
2022-08-19T07:15:04.210Z,22.60
2022-08-19T07:17:31.024Z,22.60
2022-08-19T07:19:57.850Z,22.60
2022-08-19T07:22:32.587Z,22.50
2022-08-19T07:24:59.281Z,22.60
2022-08-19T07:27:26.247Z,22.50
2022-08-19T07:29:54.471Z,22.50
2022-08-19T07:32:23.438Z,22.50
2022-08-19T07:34:50.183Z,22.50
2022-08-19T07:37:17.233Z,22.60
2022-08-19T07:39:45.221Z,22.60
2022-08-19T07:42:13.332Z,22.60
2022-08-19T07:44:47.838Z,22.60
2022-08-19T07:47:47.447Z,22.70
2022-08-19T07:50:08.224Z,22.70
2022-08-19T07:52:35.624Z,22.70
2022-08-19T07:55:04.772Z,22.80
2022-08-19T07:57:31.630Z,22.80
2022-08-19T07:59:58.359Z,22.80
2022-08-19T08:02:25.062Z,22.90
2022-08-19T08:05:10.648Z,22.90
2022-08-19T08:07:56.117Z,22.90
2022-08-19T08:10:24.146Z,23.00
2022-08-19T08:13:08.785Z,23.00
2022-08-19T08:15:42.554Z,23.00
2022-08-19T08:18:10.787Z,23.10
2022-08-19T08:20:37.629Z,23.10
2022-08-19T08:23:22.999Z,23.10
2022-08-19T08:25:50.435Z,23.10
2022-08-19T08:28:18.397Z,23.10
2022-08-19T08:30:48.233Z,23.10
2022-08-19T08:33:28.529Z,23.20
2022-08-19T08:36:08.340Z,23.20
2022-08-19T08:38:39.725Z,23.30
2022-08-19T08:41:20.414Z,23.30
2022-08-19T08:43:51.941Z,23.30
2022-08-19T08:46:31.599Z,23.40
2022-08-19T08:49:21.377Z,23.40
2022-08-19T08:51:59.987Z,23.40
2022-08-19T08:54:55.260Z,23.50
2022-08-19T08:57:37.669Z,23.50
2022-08-19T09:00:17.174Z,23.60
2022-08-19T09:02:45.312Z,23.60
2022-08-19T09:05:22.385Z,23.70
2022-08-19T09:08:22.030Z,23.70
2022-08-19T09:10:55.082Z,23.80
2022-08-19T09:13:34.757Z,23.80
2022-08-19T09:16:12.313Z,23.90
2022-08-19T09:18:46.865Z,23.90
2022-08-19T09:21:14.942Z,24.00
2022-08-19T09:23:42.067Z,24.10
2022-08-19T09:26:16.425Z,24.10
2022-08-19T09:28:48.288Z,24.20
2022-08-19T09:31:18.979Z,24.30
2022-08-19T09:33:46.220Z,24.40
2022-08-19T09:36:34.858Z,24.40
2022-08-19T09:39:02.214Z,24.50
2022-08-19T09:41:30.976Z,24.60
2022-08-19T09:43:59.512Z,24.70
2022-08-19T09:46:29.854Z,24.80
2022-08-19T09:49:03.071Z,24.90
2022-08-19T09:51:33.955Z,24.90
2022-08-19T09:54:04.791Z,25.00
2022-08-19T09:56:35.215Z,25.10
2022-08-19T09:59:04.627Z,25.10
2022-08-19T10:01:32.844Z,25.20
2022-08-19T10:04:01.071Z,25.30
2022-08-19T10:06:45.784Z,25.40
2022-08-19T10:09:15.059Z,25.50
2022-08-19T10:11:51.228Z,25.70
2022-08-19T10:14:23.286Z,25.80
2022-08-19T10:16:51.887Z,26.00
2022-08-19T10:19:25.587Z,26.10
2022-08-19T10:21:54.410Z,26.30
2022-08-19T10:24:28.416Z,26.40
2022-08-19T10:26:57.255Z,26.50
2022-08-19T10:29:31.835Z,26.50
2022-08-19T10:32:09.448Z,26.60
2022-08-19T10:34:37.794Z,26.60
2022-08-19T10:37:28.952Z,26.70
2022-08-19T10:39:58.189Z,26.80
2022-08-19T10:42:25.006Z,26.80
2022-08-19T10:44:52.196Z,26.90
2022-08-19T10:47:25.883Z,26.90
2022-08-19T10:50:12.919Z,27.00
2022-08-19T10:52:50.134Z,27.20
2022-08-19T10:55:41.154Z,27.30
2022-08-19T10:58:17.869Z,27.30
2022-08-19T11:00:51.684Z,27.40
2022-08-19T11:03:21.113Z,27.50
2022-08-19T11:05:49.748Z,27.50
2022-08-19T11:08:23.115Z,27.50
2022-08-19T11:10:54.395Z,27.60
2022-08-19T11:13:21.092Z,27.60
2022-08-19T11:15:48.258Z,27.60
2022-08-19T11:18:15.033Z,27.60
2022-08-19T11:20:42.249Z,27.60
2022-08-19T11:23:08.994Z,27.70
2022-08-19T11:25:36.204Z,27.60
2022-08-19T11:28:03.158Z,27.60
2022-08-19T11:30:31.873Z,27.60
2022-08-19T11:32:58.601Z,27.60
2022-08-19T11:35:25.262Z,27.60
2022-08-19T11:37:52.049Z,27.60
2022-08-19T11:40:19.075Z,27.60
2022-08-19T11:42:57.908Z,27.60
2022-08-19T11:45:26.498Z,27.70
2022-08-19T11:47:54.180Z,27.80
2022-08-19T11:50:21.646Z,27.90
2022-08-19T11:52:50.496Z,28.00
2022-08-19T11:55:17.300Z,28.10
2022-08-19T11:57:44.509Z,28.10
2022-08-19T12:00:15.153Z,28.10
2022-08-19T12:02:41.997Z,28.00
2022-08-19T12:05:12.194Z,28.00
2022-08-19T12:07:40.550Z,28.00
2022-08-19T12:10:07.546Z,28.00
2022-08-19T12:12:35.685Z,28.00
2022-08-19T12:15:03.190Z,28.00
2022-08-19T12:17:31.751Z,28.00
2022-08-19T12:19:58.624Z,28.10
2022-08-19T12:22:25.352Z,28.10
2022-08-19T12:24:54.140Z,28.10
2022-08-19T12:27:32.315Z,28.20
2022-08-19T12:30:10.184Z,28.30
2022-08-19T12:32:36.909Z,28.40
2022-08-19T12:35:09.029Z,28.40
2022-08-19T12:37:35.902Z,28.50
2022-08-19T12:40:04.138Z,28.50
2022-08-19T12:42:31.368Z,28.60
2022-08-19T12:44:58.133Z,28.70
2022-08-19T12:47:26.910Z,28.70
2022-08-19T12:50:06.910Z,28.70
2022-08-19T12:52:33.800Z,28.80
2022-08-19T12:55:02.955Z,28.80
2022-08-19T12:57:31.965Z,28.90
2022-08-19T13:00:01.810Z,29.00
2022-08-19T13:02:33.048Z,29.00
2022-08-19T13:05:12.775Z,29.10
2022-08-19T13:07:40.453Z,29.20
2022-08-19T13:10:12.731Z,29.30
2022-08-19T13:12:40.170Z,29.40
2022-08-19T13:15:10.891Z,29.50
2022-08-19T13:17:39.843Z,29.60
2022-08-19T13:20:09.303Z,29.70
2022-08-19T13:22:38.312Z,29.80
2022-08-19T13:25:06.688Z,29.90
2022-08-19T13:27:33.630Z,30.00
2022-08-19T13:30:27.584Z,30.10
2022-08-19T13:33:17.025Z,30.20
2022-08-19T13:35:53.867Z,30.40
2022-08-19T13:38:22.169Z,30.50
2022-08-19T13:40:51.248Z,30.60
2022-08-19T13:43:23.823Z,30.70
2022-08-19T13:46:01.341Z,31.10
2022-08-19T13:48:28.199Z,31.70
2022-08-19T13:50:57.420Z,32.60
2022-08-19T13:53:26.193Z,33.50
2022-08-19T13:55:54.452Z,34.30
2022-08-19T13:58:26.287Z,34.80
2022-08-19T14:00:54.931Z,35.10
2022-08-19T14:03:26.418Z,35.30
2022-08-19T14:05:53.197Z,35.30
2022-08-19T14:08:24.426Z,35.30
2022-08-19T14:10:51.228Z,35.00
2022-08-19T14:13:25.685Z,34.70
2022-08-19T14:15:55.468Z,34.50
2022-08-19T14:18:22.413Z,34.40
2022-08-19T14:20:53.563Z,34.20
2022-08-19T14:23:20.927Z,34.00
2022-08-19T14:25:47.781Z,33.70
2022-08-19T14:28:14.577Z,33.40
2022-08-19T14:30:41.349Z,33.10
2022-08-19T14:33:09.350Z,32.90
2022-08-19T14:35:36.780Z,32.70
2022-08-19T14:38:15.364Z,32.70
2022-08-19T14:40:42.954Z,33.00
2022-08-19T14:43:11.252Z,33.40
2022-08-19T14:45:40.843Z,33.80
2022-08-19T14:48:18.919Z,34.00
2022-08-19T14:50:46.378Z,34.00
2022-08-19T14:53:13.285Z,33.90
2022-08-19T14:55:47.636Z,33.60
2022-08-19T14:58:29.087Z,33.30
2022-08-19T15:00:59.979Z,33.10
2022-08-19T15:03:26.901Z,32.90
2022-08-19T15:05:53.760Z,32.60
2022-08-19T15:08:24.402Z,32.30
2022-08-19T15:10:51.666Z,32.10
2022-08-19T15:13:18.671Z,31.80
2022-08-19T15:15:46.299Z,31.60
2022-08-19T15:18:13.911Z,31.30
2022-08-19T15:20:42.220Z,31.00
2022-08-19T15:23:09.153Z,30.80
2022-08-19T15:25:36.544Z,30.50
2022-08-19T15:28:04.215Z,30.30
2022-08-19T15:30:31.216Z,30.10
2022-08-19T15:32:59.008Z,30.00
2022-08-19T15:35:26.284Z,29.80
2022-08-19T15:37:54.254Z,29.70
2022-08-19T15:40:22.860Z,29.60
2022-08-19T15:42:50.593Z,29.50
2022-08-19T15:45:19.609Z,29.50
2022-08-19T15:47:46.707Z,29.50
2022-08-19T15:50:18.265Z,29.50
2022-08-19T15:52:53.875Z,29.50
2022-08-19T15:55:33.391Z,29.50
2022-08-19T15:58:27.885Z,29.60
2022-08-19T16:01:26.999Z,29.60
2022-08-19T16:04:14.687Z,29.60
2022-08-19T16:06:49.250Z,29.60
2022-08-19T16:09:17.407Z,29.60
2022-08-19T16:11:46.199Z,29.60
2022-08-19T16:14:18.481Z,29.60
2022-08-19T16:16:47.122Z,29.50
2022-08-19T16:19:16.585Z,29.50
2022-08-19T16:21:49.593Z,29.50
2022-08-19T16:24:19.425Z,29.60
2022-08-19T16:26:50.207Z,29.60
2022-08-19T16:29:27.646Z,29.60
2022-08-19T16:32:03.641Z,29.70
2022-08-19T16:34:30.885Z,29.70
2022-08-19T16:36:58.029Z,29.80
2022-08-19T16:39:24.745Z,29.90
2022-08-19T16:41:51.706Z,30.00
2022-08-19T16:44:20.598Z,30.00
2022-08-19T16:46:54.807Z,30.00
2022-08-19T16:49:53.589Z,30.00
2022-08-19T16:52:16.988Z,29.90
2022-08-19T16:54:44.615Z,29.80
2022-08-19T16:57:12.776Z,29.70
2022-08-19T16:59:48.134Z,29.60
2022-08-19T17:02:22.409Z,29.50
2022-08-19T17:04:57.612Z,29.50
2022-08-19T17:07:28.585Z,29.40
2022-08-19T17:09:56.433Z,29.30
2022-08-19T17:12:31.665Z,29.30
2022-08-19T17:15:00.617Z,29.30
2022-08-19T17:17:29.294Z,29.30
2022-08-19T17:19:56.990Z,29.20
2022-08-19T17:22:23.981Z,29.10
2022-08-19T17:24:50.635Z,29.10
2022-08-19T17:27:19.578Z,29.00
2022-08-19T17:29:47.132Z,29.00
2022-08-19T17:32:15.248Z,28.90
2022-08-19T17:34:41.990Z,28.80
2022-08-19T17:37:08.750Z,28.70
2022-08-19T17:39:39.573Z,28.60
2022-08-19T17:42:08.228Z,28.60
2022-08-19T17:44:36.534Z,28.50
2022-08-19T17:47:04.211Z,28.40
2022-08-19T17:49:33.268Z,28.30
2022-08-19T17:52:06.158Z,28.30
2022-08-19T17:54:38.449Z,28.20
2022-08-19T17:57:08.360Z,28.10
2022-08-19T17:59:37.279Z,28.00
2022-08-19T18:02:06.988Z,28.00
2022-08-19T18:04:38.197Z,27.90
2022-08-19T18:07:08.196Z,27.90
2022-08-19T18:09:41.475Z,27.80
2022-08-19T18:12:13.878Z,27.70
2022-08-19T18:14:45.267Z,27.60
2022-08-19T18:17:20.852Z,27.60
2022-08-19T18:19:50.038Z,27.50
2022-08-19T18:22:27.624Z,27.40
2022-08-19T18:24:59.883Z,27.30
2022-08-19T18:27:29.266Z,27.20
2022-08-19T18:30:00.922Z,27.20
2022-08-19T18:32:33.774Z,27.10
2022-08-19T18:35:02.244Z,27.10
2022-08-19T18:37:29.436Z,27.00
2022-08-19T18:40:15.029Z,26.90
2022-08-19T18:43:02.297Z,26.90
2022-08-19T18:45:48.529Z,26.80
2022-08-19T18:48:39.041Z,26.70
2022-08-19T18:51:10.184Z,26.60
2022-08-19T18:53:44.236Z,26.50
2022-08-19T18:56:14.028Z,26.40
2022-08-19T18:58:47.830Z,26.30
2022-08-19T19:01:18.730Z,26.20
2022-08-19T19:03:53.096Z,26.10
2022-08-19T19:06:24.450Z,25.90
2022-08-19T19:08:52.715Z,25.80
2022-08-19T19:11:29.690Z,25.70
2022-08-19T19:13:59.323Z,25.60
2022-08-19T19:16:29.244Z,25.50
2022-08-19T19:19:00.732Z,25.40
2022-08-19T19:21:30.856Z,25.30
2022-08-19T19:24:03.293Z,25.30
2022-08-19T19:26:32.470Z,25.20
2022-08-19T19:28:59.703Z,25.20
2022-08-19T19:31:29.157Z,25.20
2022-08-19T19:34:02.276Z,25.20
2022-08-19T19:36:31.798Z,25.10
2022-08-19T19:39:02.774Z,25.10
2022-08-19T19:41:41.397Z,25.10
2022-08-19T19:44:32.457Z,25.10
2022-08-19T19:47:01.482Z,25.10
2022-08-19T19:49:33.476Z,25.10
2022-08-19T19:52:03.076Z,25.10
2022-08-19T19:54:29.793Z,25.00
2022-08-19T19:56:56.474Z,25.00
2022-08-19T19:59:25.502Z,24.90
2022-08-19T20:01:55.139Z,24.90
2022-08-19T20:04:28.944Z,24.90
2022-08-19T20:06:55.682Z,24.90
2022-08-19T20:09:22.377Z,24.90
2022-08-19T20:11:53.588Z,24.90
2022-08-19T20:14:35.692Z,24.80
2022-08-19T20:17:03.100Z,24.80
2022-08-19T20:19:53.811Z,24.70
2022-08-19T20:22:23.274Z,24.70
2022-08-19T20:24:54.725Z,24.70
2022-08-19T20:27:25.082Z,24.60
2022-08-19T20:29:53.228Z,24.50
2022-08-19T20:32:20.093Z,24.50
2022-08-19T20:34:49.715Z,24.50
2022-08-19T20:37:18.302Z,24.40
2022-08-19T20:39:44.981Z,24.40
2022-08-19T20:42:14.461Z,24.40
2022-08-19T20:44:43.753Z,24.40
2022-08-19T20:47:10.466Z,24.40
2022-08-19T20:49:37.163Z,24.40
2022-08-19T20:52:07.903Z,24.40
2022-08-19T20:54:42.040Z,24.40
2022-08-19T20:57:11.508Z,24.40
2022-08-19T20:59:45.976Z,24.30
2022-08-19T21:02:14.766Z,24.30
2022-08-19T21:04:41.497Z,24.30
2022-08-19T21:07:08.802Z,24.40
2022-08-19T21:09:40.135Z,24.30
2022-08-19T21:12:12.682Z,24.30
2022-08-19T21:14:42.714Z,24.30
2022-08-19T21:17:09.675Z,24.30
2022-08-19T21:19:39.750Z,24.20
2022-08-19T21:22:06.796Z,24.20
2022-08-19T21:24:36.197Z,24.20
2022-08-19T21:27:03.275Z,24.20
2022-08-19T21:29:35.939Z,24.20
2022-08-19T21:32:04.983Z,24.20
2022-08-19T21:34:31.744Z,24.20
2022-08-19T21:36:58.492Z,24.20
2022-08-19T21:39:25.329Z,24.20
2022-08-19T21:41:54.581Z,24.10
2022-08-19T21:44:26.486Z,24.10
2022-08-19T21:46:55.982Z,24.10
2022-08-19T21:49:25.187Z,24.10
2022-08-19T21:51:58.127Z,24.00
2022-08-19T21:54:25.092Z,24.00
2022-08-19T21:56:53.981Z,24.00
2022-08-19T21:59:21.919Z,24.00
2022-08-19T22:01:52.055Z,24.00
2022-08-19T22:04:28.012Z,24.00
2022-08-19T22:06:54.668Z,24.00
2022-08-19T22:09:21.363Z,24.00
2022-08-19T22:11:49.011Z,24.10
2022-08-19T22:14:15.678Z,24.00
2022-08-19T22:16:43.033Z,24.00
2022-08-19T22:19:11.051Z,24.00
2022-08-19T22:21:41.201Z,24.00
2022-08-19T22:24:08.613Z,24.00
2022-08-19T22:26:37.581Z,24.00
2022-08-19T22:29:04.325Z,24.00
2022-08-19T22:31:33.719Z,24.00
2022-08-19T22:34:01.748Z,24.00
2022-08-19T22:36:28.430Z,24.00
2022-08-19T22:38:56.330Z,24.00
2022-08-19T22:41:25.373Z,24.00
2022-08-19T22:43:54.773Z,24.00
2022-08-19T22:46:21.506Z,24.00
2022-08-19T22:48:49.485Z,24.00
2022-08-19T22:51:46.322Z,24.00
2022-08-19T22:54:13.101Z,24.00
2022-08-19T22:56:39.801Z,24.00
2022-08-19T22:59:09.734Z,24.00
2022-08-19T23:01:36.951Z,24.00
2022-08-19T23:04:05.422Z,24.00
2022-08-19T23:06:33.849Z,24.00
2022-08-19T23:09:08.220Z,24.00
2022-08-19T23:11:42.984Z,24.00
2022-08-19T23:14:13.686Z,24.00
2022-08-19T23:16:47.865Z,23.90
2022-08-19T23:19:17.417Z,24.00
2022-08-19T23:21:44.177Z,23.90
2022-08-19T23:24:11.326Z,23.90
2022-08-19T23:26:38.527Z,23.90
2022-08-19T23:29:24.371Z,23.90
2022-08-19T23:31:53.650Z,23.90
2022-08-19T23:34:20.359Z,23.90
2022-08-19T23:36:47.039Z,23.80
2022-08-19T23:39:19.634Z,23.80
2022-08-19T23:41:46.377Z,23.80
2022-08-19T23:44:15.137Z,23.80
2022-08-19T23:46:55.389Z,23.80
2022-08-19T23:49:23.262Z,23.70
2022-08-19T23:51:50.001Z,23.70
2022-08-19T23:54:16.673Z,23.70
2022-08-19T23:56:43.390Z,23.70
2022-08-19T23:59:14.010Z,23.70
